sensor_id;sensor_type;location;lat;lon;timestamp;P1;durP1;ratioP1;P2;durP2;ratioP2
36663;SDS011;53333;51.976;20.144;2023-07-08T00:01:59;20.85;;;11.27;;
36663;SDS011;53333;51.976;20.144;2023-07-08T00:04:33;16.33;;;10.40;;
36663;SDS011;53333;51.976;20.144;2023-07-08T00:07:08;19.27;;;9.95;;
36663;SDS011;53333;51.976;20.144;2023-07-08T00:09:46;14.98;;;10.57;;
36663;SDS011;53333;51.976;20.144;2023-07-08T00:12:19;19.75;;;11.13;;
36663;SDS011;53333;51.976;20.144;2023-07-08T00:14:52;20.70;;;10.50;;
36663;SDS011;53333;51.976;20.144;2023-07-08T00:17:25;18.83;;;10.25;;
36663;SDS011;53333;51.976;20.144;2023-07-08T00:20:00;18.25;;;11.82;;
36663;SDS011;53333;51.976;20.144;2023-07-08T00:22:33;20.20;;;10.80;;
36663;SDS011;53333;51.976;20.144;2023-07-08T00:25:07;16.20;;;10.00;;
36663;SDS011;53333;51.976;20.144;2023-07-08T00:27:40;17.73;;;9.55;;
36663;SDS011;53333;51.976;20.144;2023-07-08T00:30:17;17.50;;;9.93;;
36663;SDS011;53333;51.976;20.144;2023-07-08T00:32:53;12.85;;;7.68;;
36663;SDS011;53333;51.976;20.144;2023-07-08T00:35:29;17.30;;;8.93;;
36663;SDS011;53333;51.976;20.144;2023-07-08T00:38:09;15.20;;;8.95;;
36663;SDS011;53333;51.976;20.144;2023-07-08T00:40:48;14.70;;;8.57;;
36663;SDS011;53333;51.976;20.144;2023-07-08T00:43:27;18.90;;;8.10;;
36663;SDS011;53333;51.976;20.144;2023-07-08T00:46:13;15.07;;;7.53;;
36663;SDS011;53333;51.976;20.144;2023-07-08T00:48:55;16.08;;;7.80;;
36663;SDS011;53333;51.976;20.144;2023-07-08T00:51:42;12.48;;;7.15;;
36663;SDS011;53333;51.976;20.144;2023-07-08T00:54:16;12.93;;;7.03;;
36663;SDS011;53333;51.976;20.144;2023-07-08T00:56:51;10.40;;;7.30;;
36663;SDS011;53333;51.976;20.144;2023-07-08T00:59:26;12.70;;;6.70;;
36663;SDS011;53333;51.976;20.144;2023-07-08T01:02:03;11.45;;;6.30;;
36663;SDS011;53333;51.976;20.144;2023-07-08T01:04:42;9.38;;;7.20;;
36663;SDS011;53333;51.976;20.144;2023-07-08T01:07:22;9.38;;;6.68;;
36663;SDS011;53333;51.976;20.144;2023-07-08T01:10:00;13.13;;;6.82;;
36663;SDS011;53333;51.976;20.144;2023-07-08T01:12:36;13.77;;;7.18;;
36663;SDS011;53333;51.976;20.144;2023-07-08T01:15:12;15.23;;;7.65;;
36663;SDS011;53333;51.976;20.144;2023-07-08T01:17:46;12.80;;;8.05;;
36663;SDS011;53333;51.976;20.144;2023-07-08T01:20:25;14.77;;;7.35;;
36663;SDS011;53333;51.976;20.144;2023-07-08T01:23:00;11.35;;;6.95;;
36663;SDS011;53333;51.976;20.144;2023-07-08T01:25:33;13.25;;;8.40;;
36663;SDS011;53333;51.976;20.144;2023-07-08T01:28:06;15.38;;;8.98;;
36663;SDS011;53333;51.976;20.144;2023-07-08T01:33:15;13.25;;;8.13;;
36663;SDS011;53333;51.976;20.144;2023-07-08T01:35:51;12.98;;;8.32;;
36663;SDS011;53333;51.976;20.144;2023-07-08T01:38:26;13.98;;;8.75;;
36663;SDS011;53333;51.976;20.144;2023-07-08T01:41:00;15.65;;;9.32;;
36663;SDS011;53333;51.976;20.144;2023-07-08T01:43:34;15.88;;;10.00;;
36663;SDS011;53333;51.976;20.144;2023-07-08T01:46:10;17.25;;;9.75;;
36663;SDS011;53333;51.976;20.144;2023-07-08T01:48:47;18.02;;;10.65;;
36663;SDS011;53333;51.976;20.144;2023-07-08T01:51:24;14.80;;;10.10;;
36663;SDS011;53333;51.976;20.144;2023-07-08T01:54:00;18.48;;;10.13;;
36663;SDS011;53333;51.976;20.144;2023-07-08T01:56:32;15.05;;;9.15;;
36663;SDS011;53333;51.976;20.144;2023-07-08T02:01:39;12.80;;;8.95;;
36663;SDS011;53333;51.976;20.144;2023-07-08T02:04:11;16.38;;;9.43;;
36663;SDS011;53333;51.976;20.144;2023-07-08T02:06:50;16.25;;;8.73;;
36663;SDS011;53333;51.976;20.144;2023-07-08T02:09:25;12.65;;;8.15;;
36663;SDS011;53333;51.976;20.144;2023-07-08T02:11:58;12.38;;;9.00;;
36663;SDS011;53333;51.976;20.144;2023-07-08T02:14:31;18.27;;;9.80;;
36663;SDS011;53333;51.976;20.144;2023-07-08T02:17:04;16.73;;;10.02;;
36663;SDS011;53333;51.976;20.144;2023-07-08T02:22:10;19.90;;;9.82;;
36663;SDS011;53333;51.976;20.144;2023-07-08T02:24:44;16.33;;;9.65;;
36663;SDS011;53333;51.976;20.144;2023-07-08T02:27:17;15.80;;;9.07;;
36663;SDS011;53333;51.976;20.144;2023-07-08T02:29:50;20.10;;;10.95;;
36663;SDS011;53333;51.976;20.144;2023-07-08T02:32:23;17.20;;;9.32;;
36663;SDS011;53333;51.976;20.144;2023-07-08T02:34:56;13.40;;;8.85;;
36663;SDS011;53333;51.976;20.144;2023-07-08T02:37:29;15.27;;;10.05;;
36663;SDS011;53333;51.976;20.144;2023-07-08T02:40:03;15.20;;;9.02;;
36663;SDS011;53333;51.976;20.144;2023-07-08T02:42:37;15.38;;;8.82;;
36663;SDS011;53333;51.976;20.144;2023-07-08T02:45:11;13.73;;;8.68;;
36663;SDS011;53333;51.976;20.144;2023-07-08T02:47:44;14.75;;;8.55;;
36663;SDS011;53333;51.976;20.144;2023-07-08T02:50:17;15.82;;;8.30;;
36663;SDS011;53333;51.976;20.144;2023-07-08T02:52:50;16.98;;;7.70;;
36663;SDS011;53333;51.976;20.144;2023-07-08T02:55:25;11.57;;;6.75;;
36663;SDS011;53333;51.976;20.144;2023-07-08T02:57:58;14.18;;;7.38;;
36663;SDS011;53333;51.976;20.144;2023-07-08T03:00:31;11.98;;;7.53;;
36663;SDS011;53333;51.976;20.144;2023-07-08T03:03:04;14.05;;;7.75;;
36663;SDS011;53333;51.976;20.144;2023-07-08T03:05:38;10.70;;;7.20;;
36663;SDS011;53333;51.976;20.144;2023-07-08T03:08:10;13.30;;;7.75;;
36663;SDS011;53333;51.976;20.144;2023-07-08T03:10:46;11.50;;;7.00;;
36663;SDS011;53333;51.976;20.144;2023-07-08T03:13:20;13.07;;;7.53;;
36663;SDS011;53333;51.976;20.144;2023-07-08T03:15:53;11.75;;;8.45;;
36663;SDS011;53333;51.976;20.144;2023-07-08T03:18:26;13.82;;;7.30;;
36663;SDS011;53333;51.976;20.144;2023-07-08T03:21:00;13.73;;;6.97;;
36663;SDS011;53333;51.976;20.144;2023-07-08T03:23:33;20.00;;;8.75;;
36663;SDS011;53333;51.976;20.144;2023-07-08T03:28:45;36.25;;;8.13;;
36663;SDS011;53333;51.976;20.144;2023-07-08T03:31:19;15.25;;;7.35;;
36663;SDS011;53333;51.976;20.144;2023-07-08T03:33:53;21.17;;;8.35;;
36663;SDS011;53333;51.976;20.144;2023-07-08T03:36:26;20.52;;;8.95;;
36663;SDS011;53333;51.976;20.144;2023-07-08T03:39:00;17.88;;;8.93;;
36663;SDS011;53333;51.976;20.144;2023-07-08T03:41:34;23.05;;;9.05;;
36663;SDS011;53333;51.976;20.144;2023-07-08T03:44:07;18.00;;;8.77;;
36663;SDS011;53333;51.976;20.144;2023-07-08T03:46:40;18.75;;;8.43;;
36663;SDS011;53333;51.976;20.144;2023-07-08T03:49:14;11.73;;;7.18;;
36663;SDS011;53333;51.976;20.144;2023-07-08T03:51:51;11.82;;;7.53;;
36663;SDS011;53333;51.976;20.144;2023-07-08T03:54:25;13.95;;;7.28;;
36663;SDS011;53333;51.976;20.144;2023-07-08T03:57:03;16.42;;;7.18;;
36663;SDS011;53333;51.976;20.144;2023-07-08T03:59:39;18.83;;;7.60;;
36663;SDS011;53333;51.976;20.144;2023-07-08T04:02:12;11.27;;;7.20;;
36663;SDS011;53333;51.976;20.144;2023-07-08T04:04:45;15.93;;;8.80;;
36663;SDS011;53333;51.976;20.144;2023-07-08T04:07:19;13.23;;;7.50;;
36663;SDS011;53333;51.976;20.144;2023-07-08T04:09:52;10.98;;;7.07;;
36663;SDS011;53333;51.976;20.144;2023-07-08T04:12:27;12.32;;;7.15;;
36663;SDS011;53333;51.976;20.144;2023-07-08T04:15:00;14.82;;;6.88;;
36663;SDS011;53333;51.976;20.144;2023-07-08T04:17:33;13.57;;;7.63;;
36663;SDS011;53333;51.976;20.144;2023-07-08T04:20:08;12.15;;;6.97;;
36663;SDS011;53333;51.976;20.144;2023-07-08T04:22:42;10.98;;;6.18;;
36663;SDS011;53333;51.976;20.144;2023-07-08T04:25:15;11.73;;;6.03;;
36663;SDS011;53333;51.976;20.144;2023-07-08T04:27:49;8.98;;;6.38;;
36663;SDS011;53333;51.976;20.144;2023-07-08T04:30:30;8.80;;;5.68;;
36663;SDS011;53333;51.976;20.144;2023-07-08T04:33:03;11.55;;;6.35;;
36663;SDS011;53333;51.976;20.144;2023-07-08T04:35:38;11.27;;;6.47;;
36663;SDS011;53333;51.976;20.144;2023-07-08T04:38:14;9.07;;;5.93;;
36663;SDS011;53333;51.976;20.144;2023-07-08T04:40:50;12.65;;;6.30;;
36663;SDS011;53333;51.976;20.144;2023-07-08T04:43:26;11.48;;;6.60;;
36663;SDS011;53333;51.976;20.144;2023-07-08T04:46:00;10.88;;;6.75;;
36663;SDS011;53333;51.976;20.144;2023-07-08T04:48:34;10.52;;;6.50;;
36663;SDS011;53333;51.976;20.144;2023-07-08T04:51:07;12.48;;;6.95;;
36663;SDS011;53333;51.976;20.144;2023-07-08T04:53:40;11.93;;;5.78;;
36663;SDS011;53333;51.976;20.144;2023-07-08T04:56:13;9.13;;;6.35;;
36663;SDS011;53333;51.976;20.144;2023-07-08T04:58:48;12.23;;;7.22;;
36663;SDS011;53333;51.976;20.144;2023-07-08T05:01:21;9.10;;;5.90;;
36663;SDS011;53333;51.976;20.144;2023-07-08T05:03:54;10.68;;;5.68;;
36663;SDS011;53333;51.976;20.144;2023-07-08T05:06:27;13.05;;;6.65;;
36663;SDS011;53333;51.976;20.144;2023-07-08T05:09:01;8.95;;;5.90;;
36663;SDS011;53333;51.976;20.144;2023-07-08T05:11:34;10.45;;;5.63;;
36663;SDS011;53333;51.976;20.144;2023-07-08T05:16:43;10.43;;;5.80;;
36663;SDS011;53333;51.976;20.144;2023-07-08T05:19:16;8.02;;;5.55;;
36663;SDS011;53333;51.976;20.144;2023-07-08T05:21:50;10.18;;;6.35;;
36663;SDS011;53333;51.976;20.144;2023-07-08T05:24:24;9.23;;;5.32;;
36663;SDS011;53333;51.976;20.144;2023-07-08T05:26:57;7.60;;;4.93;;
36663;SDS011;53333;51.976;20.144;2023-07-08T05:32:05;15.60;;;4.70;;
36663;SDS011;53333;51.976;20.144;2023-07-08T05:34:39;6.40;;;4.57;;
36663;SDS011;53333;51.976;20.144;2023-07-08T05:37:12;8.30;;;4.13;;
36663;SDS011;53333;51.976;20.144;2023-07-08T05:39:46;5.75;;;4.15;;
36663;SDS011;53333;51.976;20.144;2023-07-08T05:42:19;8.40;;;4.45;;
36663;SDS011;53333;51.976;20.144;2023-07-08T05:44:54;11.05;;;4.22;;
36663;SDS011;53333;51.976;20.144;2023-07-08T05:47:27;10.68;;;4.15;;
36663;SDS011;53333;51.976;20.144;2023-07-08T05:50:00;7.50;;;4.63;;
36663;SDS011;53333;51.976;20.144;2023-07-08T05:52:33;11.52;;;3.88;;
36663;SDS011;53333;51.976;20.144;2023-07-08T05:55:07;8.88;;;4.18;;
36663;SDS011;53333;51.976;20.144;2023-07-08T05:57:41;6.78;;;3.60;;
36663;SDS011;53333;51.976;20.144;2023-07-08T06:00:15;5.00;;;3.35;;
36663;SDS011;53333;51.976;20.144;2023-07-08T06:03:07;5.70;;;3.17;;
36663;SDS011;53333;51.976;20.144;2023-07-08T06:05:41;7.10;;;3.45;;
36663;SDS011;53333;51.976;20.144;2023-07-08T06:08:14;5.68;;;3.38;;
36663;SDS011;53333;51.976;20.144;2023-07-08T06:10:48;6.00;;;3.35;;
36663;SDS011;53333;51.976;20.144;2023-07-08T06:13:22;5.43;;;3.28;;
36663;SDS011;53333;51.976;20.144;2023-07-08T06:15:56;6.05;;;2.83;;
36663;SDS011;53333;51.976;20.144;2023-07-08T06:18:29;7.40;;;3.95;;
36663;SDS011;53333;51.976;20.144;2023-07-08T06:21:02;5.90;;;3.83;;
36663;SDS011;53333;51.976;20.144;2023-07-08T06:23:36;4.78;;;2.90;;
36663;SDS011;53333;51.976;20.144;2023-07-08T06:26:08;6.38;;;3.08;;
36663;SDS011;53333;51.976;20.144;2023-07-08T06:28:41;7.97;;;3.15;;
36663;SDS011;53333;51.976;20.144;2023-07-08T06:31:15;7.72;;;2.85;;
36663;SDS011;53333;51.976;20.144;2023-07-08T06:33:48;4.35;;;2.72;;
36663;SDS011;53333;51.976;20.144;2023-07-08T06:36:21;4.03;;;3.00;;
36663;SDS011;53333;51.976;20.144;2023-07-08T06:38:54;6.03;;;3.10;;
36663;SDS011;53333;51.976;20.144;2023-07-08T06:41:27;10.43;;;2.80;;
36663;SDS011;53333;51.976;20.144;2023-07-08T06:46:37;13.25;;;5.75;;
36663;SDS011;53333;51.976;20.144;2023-07-08T06:49:11;6.57;;;2.92;;
36663;SDS011;53333;51.976;20.144;2023-07-08T06:51:44;4.10;;;2.40;;
36663;SDS011;53333;51.976;20.144;2023-07-08T06:54:17;6.00;;;2.55;;
36663;SDS011;53333;51.976;20.144;2023-07-08T06:56:50;5.78;;;2.47;;
36663;SDS011;53333;51.976;20.144;2023-07-08T06:59:23;3.70;;;2.50;;
36663;SDS011;53333;51.976;20.144;2023-07-08T07:04:30;4.35;;;2.60;;
36663;SDS011;53333;51.976;20.144;2023-07-08T07:07:04;3.88;;;2.13;;
36663;SDS011;53333;51.976;20.144;2023-07-08T07:09:37;5.35;;;2.10;;
36663;SDS011;53333;51.976;20.144;2023-07-08T07:12:11;2.60;;;1.98;;
36663;SDS011;53333;51.976;20.144;2023-07-08T07:14:44;3.00;;;1.70;;
36663;SDS011;53333;51.976;20.144;2023-07-08T07:17:19;4.28;;;1.90;;
36663;SDS011;53333;51.976;20.144;2023-07-08T07:19:52;4.88;;;2.17;;
36663;SDS011;53333;51.976;20.144;2023-07-08T07:22:25;3.58;;;1.80;;
36663;SDS011;53333;51.976;20.144;2023-07-08T07:24:58;5.18;;;2.05;;
36663;SDS011;53333;51.976;20.144;2023-07-08T07:27:32;2.85;;;1.60;;
36663;SDS011;53333;51.976;20.144;2023-07-08T07:32:40;4.15;;;2.10;;
36663;SDS011;53333;51.976;20.144;2023-07-08T07:35:14;1.48;;;1.38;;
36663;SDS011;53333;51.976;20.144;2023-07-08T07:37:48;3.28;;;1.80;;
36663;SDS011;53333;51.976;20.144;2023-07-08T07:42:53;2.58;;;1.83;;
36663;SDS011;53333;51.976;20.144;2023-07-08T07:48:00;2.35;;;1.55;;
36663;SDS011;53333;51.976;20.144;2023-07-08T07:50:33;2.42;;;1.70;;
36663;SDS011;53333;51.976;20.144;2023-07-08T07:53:06;2.22;;;1.50;;
36663;SDS011;53333;51.976;20.144;2023-07-08T07:55:39;5.47;;;1.88;;
36663;SDS011;53333;51.976;20.144;2023-07-08T08:00:45;4.53;;;1.60;;
36663;SDS011;53333;51.976;20.144;2023-07-08T08:03:20;2.58;;;2.20;;
36663;SDS011;53333;51.976;20.144;2023-07-08T08:05:53;2.25;;;1.70;;
36663;SDS011;53333;51.976;20.144;2023-07-08T08:08:26;4.68;;;1.95;;
36663;SDS011;53333;51.976;20.144;2023-07-08T08:10:59;2.38;;;1.67;;
36663;SDS011;53333;51.976;20.144;2023-07-08T08:13:32;3.10;;;1.80;;
36663;SDS011;53333;51.976;20.144;2023-07-08T08:16:06;4.28;;;1.85;;
36663;SDS011;53333;51.976;20.144;2023-07-08T08:18:40;5.45;;;2.38;;
36663;SDS011;53333;51.976;20.144;2023-07-08T08:21:13;4.05;;;2.47;;
36663;SDS011;53333;51.976;20.144;2023-07-08T08:23:46;2.97;;;2.15;;
36663;SDS011;53333;51.976;20.144;2023-07-08T08:26:19;4.82;;;1.92;;
36663;SDS011;53333;51.976;20.144;2023-07-08T08:31:24;2.50;;;1.73;;
36663;SDS011;53333;51.976;20.144;2023-07-08T08:33:59;3.17;;;2.15;;
36663;SDS011;53333;51.976;20.144;2023-07-08T08:36:32;3.95;;;2.15;;
36663;SDS011;53333;51.976;20.144;2023-07-08T08:39:05;2.33;;;1.90;;
36663;SDS011;53333;51.976;20.144;2023-07-08T08:41:38;2.45;;;1.95;;
36663;SDS011;53333;51.976;20.144;2023-07-08T08:44:14;2.58;;;1.88;;
36663;SDS011;53333;51.976;20.144;2023-07-08T08:46:51;5.90;;;2.83;;
36663;SDS011;53333;51.976;20.144;2023-07-08T08:49:32;2.53;;;1.83;;
36663;SDS011;53333;51.976;20.144;2023-07-08T08:52:10;3.67;;;2.00;;
36663;SDS011;53333;51.976;20.144;2023-07-08T08:54:43;3.40;;;1.70;;
36663;SDS011;53333;51.976;20.144;2023-07-08T08:57:18;2.00;;;1.60;;
36663;SDS011;53333;51.976;20.144;2023-07-08T08:59:59;3.30;;;1.60;;
36663;SDS011;53333;51.976;20.144;2023-07-08T09:02:36;2.08;;;1.77;;
36663;SDS011;53333;51.976;20.144;2023-07-08T09:05:14;1.70;;;1.60;;
36663;SDS011;53333;51.976;20.144;2023-07-08T09:07:54;3.67;;;1.90;;
36663;SDS011;53333;51.976;20.144;2023-07-08T09:10:39;2.40;;;1.90;;
36663;SDS011;53333;51.976;20.144;2023-07-08T09:13:19;1.63;;;1.45;;
36663;SDS011;53333;51.976;20.144;2023-07-08T09:15:59;3.72;;;2.30;;
36663;SDS011;53333;51.976;20.144;2023-07-08T09:18:38;3.10;;;1.85;;
36663;SDS011;53333;51.976;20.144;2023-07-08T09:21:19;5.03;;;2.63;;
36663;SDS011;53333;51.976;20.144;2023-07-08T09:23:59;2.40;;;1.75;;
36663;SDS011;53333;51.976;20.144;2023-07-08T09:26:35;2.38;;;1.90;;
36663;SDS011;53333;51.976;20.144;2023-07-08T09:29:09;3.92;;;1.60;;
36663;SDS011;53333;51.976;20.144;2023-07-08T09:31:42;2.25;;;1.70;;
36663;SDS011;53333;51.976;20.144;2023-07-08T09:34:16;2.17;;;1.70;;
36663;SDS011;53333;51.976;20.144;2023-07-08T09:36:55;1.83;;;1.67;;
36663;SDS011;53333;51.976;20.144;2023-07-08T09:39:28;5.18;;;1.80;;
36663;SDS011;53333;51.976;20.144;2023-07-08T09:42:03;3.15;;;1.65;;
36663;SDS011;53333;51.976;20.144;2023-07-08T09:44:39;4.47;;;1.70;;
36663;SDS011;53333;51.976;20.144;2023-07-08T09:47:20;3.40;;;2.10;;
36663;SDS011;53333;51.976;20.144;2023-07-08T09:49:54;2.60;;;2.40;;
36663;SDS011;53333;51.976;20.144;2023-07-08T09:52:30;4.05;;;2.15;;
36663;SDS011;53333;51.976;20.144;2023-07-08T09:55:03;2.83;;;1.83;;
36663;SDS011;53333;51.976;20.144;2023-07-08T09:57:38;3.55;;;1.92;;
36663;SDS011;53333;51.976;20.144;2023-07-08T10:00:13;1.77;;;1.58;;
36663;SDS011;53333;51.976;20.144;2023-07-08T10:02:49;3.85;;;1.80;;
36663;SDS011;53333;51.976;20.144;2023-07-08T10:05:26;2.72;;;1.95;;
36663;SDS011;53333;51.976;20.144;2023-07-08T10:08:08;4.68;;;2.17;;
36663;SDS011;53333;51.976;20.144;2023-07-08T10:10:46;3.42;;;1.90;;
36663;SDS011;53333;51.976;20.144;2023-07-08T10:13:22;2.10;;;1.77;;
36663;SDS011;53333;51.976;20.144;2023-07-08T10:16:00;3.83;;;1.90;;
36663;SDS011;53333;51.976;20.144;2023-07-08T10:18:45;3.40;;;1.50;;
36663;SDS011;53333;51.976;20.144;2023-07-08T10:21:22;2.55;;;1.90;;
36663;SDS011;53333;51.976;20.144;2023-07-08T10:24:08;2.10;;;1.67;;
36663;SDS011;53333;51.976;20.144;2023-07-08T10:26:57;2.50;;;2.00;;
36663;SDS011;53333;51.976;20.144;2023-07-08T10:29:41;4.07;;;1.63;;
36663;SDS011;53333;51.976;20.144;2023-07-08T10:32:23;2.63;;;1.98;;
36663;SDS011;53333;51.976;20.144;2023-07-08T10:35:09;4.13;;;2.10;;
36663;SDS011;53333;51.976;20.144;2023-07-08T10:38:01;2.40;;;1.92;;
36663;SDS011;53333;51.976;20.144;2023-07-08T10:40:58;4.90;;;2.85;;
36663;SDS011;53333;51.976;20.144;2023-07-08T10:43:42;3.08;;;1.90;;
36663;SDS011;53333;51.976;20.144;2023-07-08T10:46:26;2.20;;;1.75;;
36663;SDS011;53333;51.976;20.144;2023-07-08T10:49:20;2.70;;;1.63;;
36663;SDS011;53333;51.976;20.144;2023-07-08T10:52:07;2.92;;;2.00;;
36663;SDS011;53333;51.976;20.144;2023-07-08T10:55:04;2.05;;;1.58;;
36663;SDS011;53333;51.976;20.144;2023-07-08T11:01:02;8.05;;;3.63;;
36663;SDS011;53333;51.976;20.144;2023-07-08T11:03:58;4.47;;;3.05;;
36663;SDS011;53333;51.976;20.144;2023-07-08T11:06:46;2.33;;;1.70;;
36663;SDS011;53333;51.976;20.144;2023-07-08T11:09:24;2.85;;;1.80;;
36663;SDS011;53333;51.976;20.144;2023-07-08T11:12:01;2.63;;;1.70;;
36663;SDS011;53333;51.976;20.144;2023-07-08T11:14:42;2.20;;;2.00;;
36663;SDS011;53333;51.976;20.144;2023-07-08T11:17:22;2.55;;;1.88;;
36663;SDS011;53333;51.976;20.144;2023-07-08T11:20:00;2.13;;;1.80;;
36663;SDS011;53333;51.976;20.144;2023-07-08T11:22:46;2.42;;;1.90;;
36663;SDS011;53333;51.976;20.144;2023-07-08T11:25:24;6.05;;;3.70;;
36663;SDS011;53333;51.976;20.144;2023-07-08T11:28:00;2.05;;;1.67;;
36663;SDS011;53333;51.976;20.144;2023-07-08T11:30:38;1.70;;;1.58;;
36663;SDS011;53333;51.976;20.144;2023-07-08T11:33:15;4.68;;;4.05;;
36663;SDS011;53333;51.976;20.144;2023-07-08T11:35:52;3.33;;;2.10;;
36663;SDS011;53333;51.976;20.144;2023-07-08T11:38:31;2.35;;;1.95;;
36663;SDS011;53333;51.976;20.144;2023-07-08T11:41:11;2.35;;;2.08;;
36663;SDS011;53333;51.976;20.144;2023-07-08T11:43:47;4.00;;;1.90;;
36663;SDS011;53333;51.976;20.144;2023-07-08T11:46:23;3.15;;;2.00;;
36663;SDS011;53333;51.976;20.144;2023-07-08T11:49:02;6.38;;;4.20;;
36663;SDS011;53333;51.976;20.144;2023-07-08T11:51:38;6.80;;;5.72;;
36663;SDS011;53333;51.976;20.144;2023-07-08T11:54:19;2.05;;;1.85;;
36663;SDS011;53333;51.976;20.144;2023-07-08T11:57:01;2.40;;;2.13;;
36663;SDS011;53333;51.976;20.144;2023-07-08T11:59:40;2.38;;;1.67;;
36663;SDS011;53333;51.976;20.144;2023-07-08T12:02:14;2.83;;;1.85;;
36663;SDS011;53333;51.976;20.144;2023-07-08T12:04:56;3.25;;;1.90;;
36663;SDS011;53333;51.976;20.144;2023-07-08T12:07:32;2.85;;;2.20;;
36663;SDS011;53333;51.976;20.144;2023-07-08T12:10:11;3.55;;;1.80;;
36663;SDS011;53333;51.976;20.144;2023-07-08T12:12:48;2.05;;;1.83;;
36663;SDS011;53333;51.976;20.144;2023-07-08T12:15:22;1.80;;;1.70;;
36663;SDS011;53333;51.976;20.144;2023-07-08T12:17:58;2.08;;;1.75;;
36663;SDS011;53333;51.976;20.144;2023-07-08T12:20:36;3.20;;;1.88;;
36663;SDS011;53333;51.976;20.144;2023-07-08T12:23:11;4.03;;;1.60;;
36663;SDS011;53333;51.976;20.144;2023-07-08T12:25:45;3.17;;;1.70;;
36663;SDS011;53333;51.976;20.144;2023-07-08T12:28:18;3.33;;;2.05;;
36663;SDS011;53333;51.976;20.144;2023-07-08T12:30:51;2.28;;;1.90;;
36663;SDS011;53333;51.976;20.144;2023-07-08T12:33:28;3.20;;;2.00;;
36663;SDS011;53333;51.976;20.144;2023-07-08T12:36:06;2.47;;;1.80;;
36663;SDS011;53333;51.976;20.144;2023-07-08T12:38:43;7.85;;;3.80;;
36663;SDS011;53333;51.976;20.144;2023-07-08T12:41:18;3.20;;;2.03;;
36663;SDS011;53333;51.976;20.144;2023-07-08T12:43:53;2.38;;;1.80;;
36663;SDS011;53333;51.976;20.144;2023-07-08T12:46:27;3.33;;;1.60;;
36663;SDS011;53333;51.976;20.144;2023-07-08T12:49:01;7.10;;;4.63;;
36663;SDS011;53333;51.976;20.144;2023-07-08T12:51:35;2.10;;;1.90;;
36663;SDS011;53333;51.976;20.144;2023-07-08T12:54:08;5.85;;;1.98;;
36663;SDS011;53333;51.976;20.144;2023-07-08T12:56:43;2.63;;;2.33;;
36663;SDS011;53333;51.976;20.144;2023-07-08T12:59:19;4.40;;;2.38;;
36663;SDS011;53333;51.976;20.144;2023-07-08T13:01:54;2.33;;;1.90;;
36663;SDS011;53333;51.976;20.144;2023-07-08T13:04:27;2.83;;;1.88;;
36663;SDS011;53333;51.976;20.144;2023-07-08T13:07:02;5.13;;;2.72;;
36663;SDS011;53333;51.976;20.144;2023-07-08T13:09:36;2.15;;;1.65;;
36663;SDS011;53333;51.976;20.144;2023-07-08T13:12:13;1.83;;;1.73;;
36663;SDS011;53333;51.976;20.144;2023-07-08T13:14:49;2.45;;;2.00;;
36663;SDS011;53333;51.976;20.144;2023-07-08T13:17:23;2.35;;;1.80;;
36663;SDS011;53333;51.976;20.144;2023-07-08T13:19:56;2.35;;;2.10;;
36663;SDS011;53333;51.976;20.144;2023-07-08T13:22:31;6.65;;;1.90;;
36663;SDS011;53333;51.976;20.144;2023-07-08T13:25:09;3.47;;;2.40;;
36663;SDS011;53333;51.976;20.144;2023-07-08T13:27:54;2.30;;;2.00;;
36663;SDS011;53333;51.976;20.144;2023-07-08T13:30:29;2.97;;;2.20;;
36663;SDS011;53333;51.976;20.144;2023-07-08T13:33:03;2.28;;;2.08;;
36663;SDS011;53333;51.976;20.144;2023-07-08T13:35:39;4.97;;;2.03;;
36663;SDS011;53333;51.976;20.144;2023-07-08T13:38:16;7.55;;;3.95;;
36663;SDS011;53333;51.976;20.144;2023-07-08T13:40:52;3.25;;;2.65;;
36663;SDS011;53333;51.976;20.144;2023-07-08T13:43:26;2.03;;;1.75;;
36663;SDS011;53333;51.976;20.144;2023-07-08T13:46:03;4.93;;;2.60;;
36663;SDS011;53333;51.976;20.144;2023-07-08T13:48:38;3.00;;;2.22;;
36663;SDS011;53333;51.976;20.144;2023-07-08T14:52:03;4.05;;;2.20;;
36663;SDS011;53333;51.976;20.144;2023-07-08T14:54:37;2.50;;;2.30;;
36663;SDS011;53333;51.976;20.144;2023-07-08T14:57:10;5.00;;;2.72;;
36663;SDS011;53333;51.976;20.144;2023-07-08T14:59:48;3.83;;;3.33;;
36663;SDS011;53333;51.976;20.144;2023-07-08T15:02:22;7.95;;;3.17;;
36663;SDS011;53333;51.976;20.144;2023-07-08T15:04:55;5.82;;;4.65;;
36663;SDS011;53333;51.976;20.144;2023-07-08T15:07:29;2.92;;;2.05;;
36663;SDS011;53333;51.976;20.144;2023-07-08T15:10:03;4.47;;;2.65;;
36663;SDS011;53333;51.976;20.144;2023-07-08T15:12:36;6.80;;;4.38;;
36663;SDS011;53333;51.976;20.144;2023-07-08T15:15:16;3.83;;;2.90;;
36663;SDS011;53333;51.976;20.144;2023-07-08T15:17:51;7.68;;;4.50;;
36663;SDS011;53333;51.976;20.144;2023-07-08T15:20:24;7.40;;;2.75;;
36663;SDS011;53333;51.976;20.144;2023-07-08T15:22:59;7.65;;;3.80;;
36663;SDS011;53333;51.976;20.144;2023-07-08T15:25:32;3.60;;;2.10;;
36663;SDS011;53333;51.976;20.144;2023-07-08T15:28:05;3.38;;;1.90;;
36663;SDS011;53333;51.976;20.144;2023-07-08T15:30:43;3.50;;;2.72;;
36663;SDS011;53333;51.976;20.144;2023-07-08T15:33:17;3.58;;;2.20;;
36663;SDS011;53333;51.976;20.144;2023-07-08T15:35:50;2.42;;;1.85;;
36663;SDS011;53333;51.976;20.144;2023-07-08T15:38:25;2.92;;;2.40;;
36663;SDS011;53333;51.976;20.144;2023-07-08T15:40:58;2.25;;;1.70;;
36663;SDS011;53333;51.976;20.144;2023-07-08T15:43:32;3.17;;;2.20;;
36663;SDS011;53333;51.976;20.144;2023-07-08T15:46:06;2.25;;;2.05;;
36663;SDS011;53333;51.976;20.144;2023-07-08T15:48:40;2.78;;;2.03;;
36663;SDS011;53333;51.976;20.144;2023-07-08T15:53:47;3.35;;;2.40;;
36663;SDS011;53333;51.976;20.144;2023-07-08T15:56:20;3.60;;;2.22;;
36663;SDS011;53333;51.976;20.144;2023-07-08T15:58:54;2.85;;;2.17;;
36663;SDS011;53333;51.976;20.144;2023-07-08T16:01:27;3.45;;;1.98;;
36663;SDS011;53333;51.976;20.144;2023-07-08T16:04:00;3.88;;;2.13;;
36663;SDS011;53333;51.976;20.144;2023-07-08T16:06:33;5.93;;;5.32;;
36663;SDS011;53333;51.976;20.144;2023-07-08T16:11:40;17.83;;;11.77;;
36663;SDS011;53333;51.976;20.144;2023-07-08T16:14:14;9.32;;;4.18;;
36663;SDS011;53333;51.976;20.144;2023-07-08T16:16:48;4.20;;;2.38;;
36663;SDS011;53333;51.976;20.144;2023-07-08T16:19:21;4.78;;;2.30;;
36663;SDS011;53333;51.976;20.144;2023-07-08T16:21:54;3.60;;;2.47;;
36663;SDS011;53333;51.976;20.144;2023-07-08T16:24:28;3.08;;;2.15;;
36663;SDS011;53333;51.976;20.144;2023-07-08T16:27:01;3.30;;;1.85;;
36663;SDS011;53333;51.976;20.144;2023-07-08T16:29:35;3.90;;;2.58;;
36663;SDS011;53333;51.976;20.144;2023-07-08T16:32:08;3.13;;;2.55;;
36663;SDS011;53333;51.976;20.144;2023-07-08T16:34:43;3.53;;;2.25;;
36663;SDS011;53333;51.976;20.144;2023-07-08T16:37:16;2.63;;;2.17;;
36663;SDS011;53333;51.976;20.144;2023-07-08T16:42:23;3.63;;;2.78;;
36663;SDS011;53333;51.976;20.144;2023-07-08T16:44:57;4.35;;;2.63;;
36663;SDS011;53333;51.976;20.144;2023-07-08T16:47:30;4.38;;;2.47;;
36663;SDS011;53333;51.976;20.144;2023-07-08T16:50:03;3.60;;;2.22;;
36663;SDS011;53333;51.976;20.144;2023-07-08T16:52:37;3.75;;;2.53;;
36663;SDS011;53333;51.976;20.144;2023-07-08T16:55:12;2.80;;;2.50;;
36663;SDS011;53333;51.976;20.144;2023-07-08T16:57:47;3.60;;;2.60;;
36663;SDS011;53333;51.976;20.144;2023-07-08T17:00:20;3.70;;;2.38;;
36663;SDS011;53333;51.976;20.144;2023-07-08T17:02:54;3.90;;;2.63;;